Station 46005 (LLNR 765.5) - WEST WASHINGTON - 300NM West of Aberdeen, WA Image indicating link to RSS feed of recent meteorological observations for station 46005


Conditions at 46005 as of
(2:40 am AKDT)
1040 GMT on 09/01/2026:
     

Click on the graph icon in the table below to see a time series plot of the last five days of that observation.

5-day plot - Wind Direction Wind Direction (WDIR):WNW ( 290 deg true )
5-day plot - Wind Speed Wind Speed (WSPD): 7.8 kts
5-day plot - Wind Gust Wind Gust (GST): 9.7 kts
5-day plot - Atmospheric Pressure Atmospheric Pressure (PRES):29.80 in
5-day plot - Air Temperature Air Temperature (ATMP): 60.8 °F
5-day plot - Water Temperature Water Temperature (WTMP): 62.8 °F
5-day plot - Dew Point Dew Point (DEWP): 59.4 °F
5-day plot - Wind Speed at 10 Meters Wind Speed at 10 meters (WSPD10M): 7.8 kts
5-day plot - Wind Speed at 20 Meters Wind Speed at 20 meters (WSPD20M): 9.7 kts
5-day plot -  Wind Speed, Wind Gust and Atmospheric Pressure Combined plot of Wind Speed, Gust, and Air Pressure
Supplemental Measurements
Lowest 1-minute Pressure
Time (AKDT)Pressure
2:38 am29.80 in
Highest 1-minute Wind Speed
Time (AKDT)5-day plot - 1-Minute Wind Speed WSPD 5-day plot - 1-Minute Wind Direction WDIR
2:31 am 9.7 kts W ( 270 deg true )
Previous observations
TIME
(AKDT)
5-day plot - Wind Direction
WDIR
 
5-day plot - Wind Speed
WSPD
kts
5-day plot - Wind Gust
GST
kts
5-day plot - Wave Height
WVHT
ft
5-day plot - Dominant Wave Period
DPD
sec
5-day plot - Average Wave Period
APD
sec
5-day plot - Mean Wave Direction
MWD
 
5-day plot - Atmospheric Pressure
PRES
in
5-day plot - Pressure Tendency
PTDY
in
5-day plot - Air Temperature
ATMP
°F
5-day plot - Water Temperature
WTMP
°F
5-day plot - Dew Point
DEWP
°F
5-day plot - Salinity
SAL
psu
5-day plot - Visibility
VIS
nmi
5-day plot - Tide (above MLLW)
TIDE
ft
2026-09-01 02:30 am W 7.8 11.7----29.80- 61.0 62.8 59.5---
2026-09-01 02:20 am W 9.7 11.7 5.2 97.0WNW29.80- 61.0 62.8 59.5---
2026-09-01 02:10 am W 9.7 11.7 5.2-7.0WNW29.80- 61.5 63.0 59.9---
2026-09-01 02:00 am W 9.7 11.7----29.80-0.02 61.9 63.0 59.9---
2026-09-01 01:50 am W 9.7 11.7 4.9 96.7 NW29.80- 61.9 63.0 60.1---
2026-09-01 01:40 am SW 9.7 9.7----29.81- 62.2 63.0 61.0---
2026-09-01 01:30 am SW 9.7 11.7----29.81- 62.2 62.8 61.0---
2026-09-01 01:20 amSSW 9.7 11.7 5.2 87.0WNW29.81- 62.4 63.0 61.3---
2026-09-01 01:10 am S 9.7 11.7----29.81- 62.4 62.8 61.2---
2026-09-01 01:00 am S 9.7 11.7----29.81-0.04 62.4 62.8 61.2---
2026-09-01 12:50 am S 9.7 11.7 4.6 96.9WNW29.81- 62.4 62.8 61.2---
2026-09-01 12:40 am S 9.7 11.7 4.6-6.9WNW29.82- 62.4 62.8 61.3---
2026-09-01 12:30 am S 9.7 11.7----29.82- 62.4 62.8 61.2---
2026-09-01 12:20 am S 11.7 13.6 4.9 96.7WNW29.82- 62.4 62.8 61.2---
2026-09-01 12:10 am S 11.7 13.6----29.82- 62.2 62.8 61.0---
2026-09-01 12:00 am S 9.7 13.6----29.82-0.04 62.2 62.8 61.2---
2026-08-31 11:50 pm S 9.7 11.7 4.9 97.0 NW29.82- 62.2 62.8 61.2---
2026-08-31 11:40 pm S 11.7 13.6----29.82- 62.1 62.8 61.0---
2026-08-31 11:30 pmSSE 11.7 13.6----29.82- 62.1 62.8 60.8---
2026-08-31 11:20 pm S 9.7 11.7 4.9 97.1WNW29.82- 62.1 62.8 60.8---
2026-08-31 11:10 pmSSE 9.7 13.6 4.9-7.1WNW29.83- 61.9 62.8 60.6---
2026-08-31 11:00 pmSSE 9.7 11.7----29.83-0.02- 62.8----
2026-08-31 10:50 pmSSE 7.8 11.7 4.9-7.2WNW29.83-- 62.8----
2026-08-31 10:40 pmSSE 7.8 9.7 4.9-7.2WNW29.84- 61.2 62.8 60.1---
2026-08-31 10:30 pmSSE 7.8 9.7----29.84- 61.2 62.8 59.9---
2026-08-31 10:20 pmSSE 7.8 9.7 4.9 96.8WNW29.84- 61.0 62.8 59.7---
2026-08-31 10:10 pmSSE 5.8 7.8 4.9-6.8WNW29.84- 60.8 62.8 59.7---
2026-08-31 10:00 pmSSE 7.8 9.7----29.84+0.00 60.8- 59.7---
2026-08-31 09:50 pmSSE 7.8 9.7 4.6 96.6WNW29.85- 61.0 62.8 59.9---
2026-08-31 09:40 pmSSE 5.8 7.8 4.6-6.6WNW29.85- 60.8 62.8 59.7---
2026-08-31 09:30 pm S 3.9 5.8----29.85- 60.6 62.8 59.5---
2026-08-31 09:20 pm S 3.9 5.8 5.2 106.8 NW29.85- 60.4 62.8 59.2---
2026-08-31 09:10 pm SW 5.8 5.8 5.2-6.8 NW29.85- 60.4 62.8 59.4---
2026-08-31 09:00 pmSSW 7.8 9.7----29.85+0.00 60.8 62.8 59.5---
2026-08-31 08:50 pmSSW 7.8 9.7 4.6 156.5SSE29.85- 61.5 62.8 59.7---
2026-08-31 08:40 pmSSE 7.8 9.7 4.6-6.5SSE29.85- 62.2 62.8 60.3---
2026-08-31 08:30 pmSSE 7.8 9.7----29.85- 62.2 62.8 60.4---
2026-08-31 08:20 pmSSE 7.8 9.7 5.2 106.8WNW29.85- 62.1 62.8 60.3---
2026-08-31 08:10 pmSSE 7.8 9.7 5.2-6.8WNW29.85- 62.1 62.8 60.4---
2026-08-31 08:00 pm SE 7.8 9.7----29.85-0.01 62.1 62.8 60.4---
2026-08-31 07:50 pm SE 5.8 7.8 4.9 96.6 NW29.84- 61.9 62.8 60.3---
2026-08-31 07:40 pm SE 5.8 7.8 4.9-6.6 NW29.84- 61.9 62.8 60.3---
2026-08-31 07:30 pmSSE 5.8 7.8----29.84- 61.7 62.8 59.9---
2026-08-31 07:20 pm S 7.8 7.8 4.9 96.6WNW29.84- 61.5 62.8 59.5---
2026-08-31 07:10 pm S 7.8 11.7 4.9-6.6WNW29.84- 61.7 62.8 59.9---
2026-08-31 07:00 pm S 9.7 11.7----29.84-0.01 61.9 62.8 60.1---
2026-08-31 06:50 pm S 9.7 11.7 4.9 156.7 S29.84- 62.2 62.8 60.3---
2026-08-31 06:40 pm S 7.8 9.7 4.9-6.7 S29.84- 62.6 62.8 60.4---
2026-08-31 06:30 pm S 7.8 11.7----29.84- 62.6 62.8 60.3---
2026-08-31 06:20 pm S 7.8 9.7 4.9 156.5 S29.84- 62.6 63.0 60.4---
2026-08-31 06:10 pm S 7.8 9.7 4.9-6.5 S29.84- 62.6 63.0 60.6---
2026-08-31 06:00 pm S 7.8 9.7----29.85-0.02 62.6 63.0 60.6---
2026-08-31 05:50 pm S 7.8 9.7 5.2 106.9WNW29.85- 62.8 63.0 60.8---
2026-08-31 05:40 pm S 7.8 9.7 5.2-6.9WNW29.85- 62.8 63.0 60.6---
2026-08-31 05:30 pm S 7.8 9.7----29.85- 62.8 63.0 60.6---
2026-08-31 05:20 pm S 7.8 9.7 5.6 157.1 S29.85- 62.8 63.0 60.4---
2026-08-31 05:10 pm S 7.8 9.7 5.6-7.1 S29.85- 62.8 63.0 60.8---
2026-08-31 05:00 pm S 7.8 9.7----29.85-0.02 62.8 63.0 60.8---
2026-08-31 04:50 pm S 7.8 9.7 5.2 106.9WNW29.85- 62.8 63.0 60.6---
2026-08-31 04:40 pmSSE 7.8 9.7 5.2-6.9WNW29.85-------
2026-08-31 04:30 pmSSE 7.8 9.7----29.85- 63.0 63.0 60.6---
2026-08-31 04:20 pmSSE 7.8 9.7 5.6 97.3WNW29.85- 63.0 63.0 60.6---
2026-08-31 04:10 pm S 7.8 9.7 5.6-7.3WNW29.86- 62.8 63.0 60.3---
2026-08-31 04:00 pm S 7.8 9.7----29.86-0.03 62.8 63.0 60.4---
2026-08-31 03:50 pm S 7.8 9.7 5.2 107.0 NW29.86- 63.0 63.0 60.6---
2026-08-31 03:40 pm S 7.8 11.7 5.2-7.0 NW29.86- 63.0 63.0 60.4---
2026-08-31 02:40 pm S 9.7 11.7 5.2-7.2WNW29.87- 63.0 63.0 60.3---
2026-08-31 02:30 pm S 9.7 11.7----29.87- 62.8 63.0 60.3---
2026-08-31 02:20 pm S 9.7 11.7 5.2 97.4 NW29.87- 62.8 63.0 60.3---
2026-08-31 02:10 pm S 9.7 11.7 5.2-7.4 NW29.87- 62.8 63.0 60.3---
2026-08-31 02:00 pm S 9.7 11.7----29.87-0.04 62.8 63.0 60.3---
2026-08-31 01:50 pm S 9.7 11.7 5.2 107.5WNW29.87- 62.8 63.0 59.9---
2026-08-31 01:40 pm S 9.7 11.7 5.2-7.5WNW29.88- 62.8 62.8 59.7---
2026-08-31 01:30 pm S 9.7 11.7----29.88- 62.8 63.0 59.7---
2026-08-31 01:20 pm S 9.7 11.7 5.2 107.2 NW29.88- 62.8 62.8 59.5---
2026-08-31 01:10 pm S 9.7 11.7----29.88- 62.8 62.8 59.5---
2026-08-31 01:00 pm S 7.8 11.7----29.88-0.03 62.6 62.8 59.9---
2026-08-31 12:50 pm S 9.7 11.7 5.6 107.8WNW29.88- 62.6 62.8 60.1---
2026-08-31 12:40 pm S 9.7 11.7 5.6-7.8WNW29.89- 62.6 62.8 60.1---
2026-08-31 12:30 pm S 9.7 11.7----29.89- 62.8 62.8 60.3---
2026-08-31 12:20 pm S 9.7 11.7 5.6 107.6WNW29.89- 62.8 62.8 60.1---
2026-08-31 12:10 pm S 9.7 11.7 5.6-7.6WNW29.89- 62.6 62.8 60.1---
2026-08-31 12:00 pm S 9.7 11.7----29.90-0.02 62.4 62.6 60.1---
2026-08-31 11:50 am S 9.7 11.7 5.2 107.1WNW29.90- 62.4 62.6 60.1---
2026-08-31 11:40 am S 7.8 9.7 5.2-7.1WNW29.90- 62.4 62.6 60.1---
2026-08-31 11:30 am S 7.8 9.7----29.91- 62.4 62.6 59.9---
2026-08-31 11:20 am S 7.8 9.7 4.9 157.3 S29.91- 62.4 62.6 59.9---
2026-08-31 11:10 am S 9.7 9.7 4.9-7.3 S29.91- 62.4 62.6 59.7---
2026-08-31 11:00 am S 9.7 9.7----29.91-0.02 62.2 62.6 59.5---
2026-08-31 10:50 am S 9.7 9.7 5.2 107.5 NW29.92- 62.2 62.6 59.5---
2026-08-31 10:40 amSSW 9.7 11.7 5.2-7.5 NW29.92- 62.2 62.4 59.5---
2026-08-31 10:30 am S 7.8 9.7----29.91- 62.2 62.4 59.5---
2026-08-31 10:20 amSSW 7.8 11.7 5.6 87.4 NW29.92- 62.2 62.4 59.4---
2026-08-31 10:10 amSSW 7.8 9.7 5.6-7.4 NW29.92- 62.2 62.4 59.4---
2026-08-31 10:00 amSSW 7.8 9.7----29.92-0.01 62.1- 59.4---
2026-08-31 09:50 amSSW 7.8 9.7 5.2 97.2 NW29.92- 62.2 62.4 59.4---
2026-08-31 09:40 amSSW 7.8 9.7 5.2-7.2 NW29.92- 62.2 62.4 59.4---
2026-08-31 09:30 amSSW 7.8 9.7----29.92- 62.2 62.4 59.5---
2026-08-31 09:20 amSSW 7.8 9.7 5.9 97.5 NW29.92- 62.2 62.2 59.4---
2026-08-31 09:10 amSSW 7.8 9.7 5.9-7.5 NW29.92- 62.1 62.2 59.4---
2026-08-31 09:00 amSSW 7.8 7.8----29.93+0.00 62.1 62.2 59.5---
2026-08-31 08:50 amSSW 7.8 9.7 5.6 97.3 NW29.93- 61.9 62.2 59.5---
2026-08-31 08:40 amSSW 7.8 7.8 5.6-7.3 NW29.93- 61.9 62.2 59.7---
2026-08-31 08:30 amSSW 7.8 9.7----29.93- 61.7 62.2 59.5---
2026-08-31 08:20 amSSW 5.8 9.7 5.6 97.5 NW29.93- 61.3- 59.7---
2026-08-31 08:10 am SW 7.8 9.7 5.6-7.5 NW29.93- 61.0 62.2 59.4---
2026-08-31 08:00 amSSW 7.8 11.7----29.93+0.00 61.7 62.2 59.7---
2026-08-31 07:50 amSSW 7.8 7.8 6.2 87.9 NW29.93- 62.1 62.4 60.1---
2026-08-31 07:40 amSSW 7.8 7.8 6.2-7.9 NW29.93- 62.1 62.4 60.1---
2026-08-31 07:30 amSSW 7.8 9.7----29.93- 62.1 62.4 60.3---
2026-08-31 07:20 amSSW 7.8 9.7 6.2 97.8WNW29.93- 62.1 62.4 60.3---
2026-08-31 07:10 am S 7.8 9.7 6.2-7.8WNW29.93- 62.1 62.4 60.3---
2026-08-31 07:00 am S 7.8 9.7----29.93-0.02 62.1 62.4 60.3---
2026-08-31 06:50 am S 7.8 9.7 5.6 97.6 NW29.93- 61.9 62.4 59.9---
2026-08-31 06:40 am S 7.8 9.7----29.93- 61.9 62.4 59.9---
2026-08-31 06:30 am S 7.8 9.7----29.93- 61.9 62.4 60.1---
2026-08-31 06:20 am S 7.8 9.7 5.9 167.9SSW29.93- 61.9 62.4 59.9---
2026-08-31 06:10 am S 9.7 9.7 5.9-7.9SSW29.93- 61.9 62.4 59.9---
2026-08-31 06:00 am S 7.8 9.7----29.93-0.04 61.9 62.4 59.9---
2026-08-31 05:50 am S 7.8 9.7 5.6 97.8 NW29.93- 61.9 62.4 59.9---
2026-08-31 05:40 am S 7.8 9.7----29.93- 61.9 62.4 59.9---
2026-08-31 05:30 am S 7.8 9.7----29.93- 61.9 62.4 59.7---
2026-08-31 05:20 am S 7.8 9.7 5.6 97.7 NW29.93- 61.9 62.4 59.9---
2026-08-31 05:10 am S 7.8 9.7 5.6-7.7 NW29.93- 61.9 62.4 59.7---
2026-08-31 05:00 am S 7.8 9.7----29.93-0.04 61.9 62.6 59.7---
2026-08-31 04:50 am S 7.8 9.7 5.6 97.7 NW29.94- 61.9 62.6 59.9---
2026-08-31 04:40 am S 7.8 9.7----29.94- 61.9 62.6 59.7---
2026-08-31 04:30 am S 7.8 9.7----29.94- 61.9 62.6 59.7---
2026-08-31 04:20 amSSW 7.8 9.7 5.2 107.9WNW29.95- 61.9 62.6 59.7---
2026-08-31 04:10 am S 7.8 9.7 5.2-7.9WNW29.95- 62.1 62.6 59.7---
2026-08-31 04:00 am S 7.8 9.7----29.95-0.04 61.9 62.6 59.5---
2026-08-31 03:50 am S 7.8 9.7 5.9 108.3 NW29.96- 61.9 62.6 59.7---
2026-08-31 03:40 am S 7.8 7.8----29.96- 61.9 62.6 59.9---
2026-08-31 03:30 amSSW 7.8 9.7----29.96- 61.9 62.6 59.9---
2026-08-31 03:20 am S 7.8 9.7 5.9 108.3 NW29.96- 61.9 62.6 59.9---
2026-08-31 03:10 amSSW 7.8 9.7 5.9-8.3 NW29.96- 61.9 62.6 59.9---
2026-08-31 03:00 amSSW 7.8 9.7----29.96-0.06 61.9 62.6 59.9---
2026-08-31 02:50 amSSW 7.8 9.7 6.6 108.7 NW29.96- 61.9 62.6 59.9---

Wave Summary
for 46005 as of (2:10 am AKDT)
1010 GMT on 09/01/2026:

These wave data are displayed in rounded times.

     

Click on the graph icon in the table below to see a time series plot of the last five days of that observation.

5-day plot - Significant Wave Height Significant Wave Height (WVHT): 5.2 ft
5-day plot - Swell Height Swell Height (SwH): 4.9 ft
5-day plot - Swell Period Swell Period (SwP): 9.1 sec
5-day plot - Swell Direction Swell Direction (SwD):WNW
5-day plot - Wind Wave Height Wind Wave Height (WWH): 1.6 ft
5-day plot - Wind Wave Period Wind Wave Period (WWP): 4.3 sec
5-day plot - Wind Wave Direction Wind Wave Direction (WWD): SW
5-day plot - Wave Steepness Wave Steepness (STEEPNESS): AVERAGE
5-day plot - Average Wave Period Average Wave Period (APD): 7.0 sec
Previous observations
TIME
(AKDT)
5-day plot - Wave Height
WVHT
ft
5-day plot - Swell Height
SwH
ft
5-day plot - Swell Period
SwP
sec
5-day plot - Swell Direction
SwD
 
5-day plot - Wind Wave Height
WWH
ft
5-day plot - Wind Wave Period
WWP
sec
5-day plot - Wind Wave Direction
WWD
 
5-day plot - Wave Steepness
STEEPNESS
 
5-day plot - Average Wave Period
APD
sec
2026-09-01 01:40 am 4.9 4.6 9.1 NW 1.3 4.2 SW AVERAGE 6.7
2026-09-01 01:10 am 5.2 5.2 8.3WNW 1.6 4.3 SW AVERAGE 7.0
2026-09-01 12:40 am 4.6 4.6 9.1WNW 1.3 4.3 SW SWELL 6.9
2026-09-01 12:10 am 4.9 4.3 9.1WNW 2.0 4.2 WSW SWELL 6.7
2026-08-31 11:40 pm 4.9 4.6 9.1 NW 2.0 5.0 WSW AVERAGE 7.0
2026-08-31 11:10 pm 4.9 4.6 9.1WNW 1.6 5.0 WSW AVERAGE 7.1
2026-08-31 10:40 pm 4.9 4.6 9.1WNW 1.0 3.4 SSW AVERAGE 7.2
2026-08-31 10:10 pm 4.9 4.9 9.1WNW 1.3 3.6 SSW AVERAGE 6.8
2026-08-31 09:40 pm 4.6 4.6 9.1WNW 1.3 3.4 SW SWELL 6.6
2026-08-31 09:10 pm 5.2 4.9 10.0 NW 1.3 3.7 SW SWELL 6.8
2026-08-31 08:40 pm 4.6 4.6 14.8SSE 1.3 3.8 SW SWELL 6.5
2026-08-31 08:10 pm 5.2 4.9 10.0WNW 1.3 3.8 WSW SWELL 6.8
2026-08-31 07:40 pm 4.9 4.6 9.1 NW 1.3 3.8 SW AVERAGE 6.6
2026-08-31 07:10 pm 4.9 4.9 9.1WNW 1.3 4.0 WSW AVERAGE 6.6
2026-08-31 06:40 pm 4.9 4.9 14.8 S 1.3 3.7 WSW SWELL 6.7
2026-08-31 06:10 pm 4.9 4.6 14.8 S 1.3 4.0 WSW SWELL 6.5
2026-08-31 05:40 pm 5.2 5.2 10.0WNW 1.3 3.7 SW SWELL 6.9
2026-08-31 05:10 pm 5.6 5.2 14.8 S 1.3 4.0 SW SWELL 7.1
2026-08-31 04:40 pm 5.2 5.2 10.0WNW 1.3 4.0 WSW SWELL 6.9
2026-08-31 04:10 pm 5.6 5.6 9.1WNW 1.3 3.7 SW AVERAGE 7.3
2026-08-31 03:40 pm 5.2 5.2 10.0 NW 1.3 3.6 SW SWELL 7.0
2026-08-31 03:10 pm 5.6 5.2 10.0WNW 1.6 3.4 SW SWELL 7.1
2026-08-31 02:40 pm 5.2 5.2 10.0WNW 1.6 4.2 W SWELL 7.2
2026-08-31 02:10 pm 5.2 4.9 9.1 NW 1.3 4.0 W AVERAGE 7.4
2026-08-31 01:40 pm 5.2 5.2 10.0WNW 1.3 4.3 WNW SWELL 7.5
2026-08-31 01:10 pm 5.2 4.9 10.0 NW 1.3 4.0 W SWELL 7.2
2026-08-31 12:40 pm 5.6 5.6 10.0WNW 1.3 4.3 WNW SWELL 7.8
2026-08-31 12:10 pm 5.6 5.6 10.0WNW 1.3 4.2 WNW SWELL 7.6
2026-08-31 11:40 am 5.2 4.9 10.0WNW 1.0 3.3 W SWELL 7.1
2026-08-31 11:10 am 4.9 4.9 14.8 S 1.3 4.2 WNW SWELL 7.3
2026-08-31 10:40 am 5.2 5.2 10.0 NW 1.3 3.6 W SWELL 7.5
2026-08-31 10:10 am 5.6 5.2 8.3 NW 1.0 4.0 WNW AVERAGE 7.4
2026-08-31 09:40 am 5.2 5.2 9.1 NW 1.0 3.6 W AVERAGE 7.2
2026-08-31 09:10 am 5.9 5.6 9.1 NW 1.0 3.7 WNW AVERAGE 7.5
2026-08-31 08:40 am 5.6 5.2 9.1 NW 1.0 3.8 WNW AVERAGE 7.3
2026-08-31 08:10 am 5.6 5.6 9.1 NW 1.0 2.9 W AVERAGE 7.5
2026-08-31 07:40 am 6.2 6.2 8.3 NW 1.0 4.0 W AVERAGE 7.9
2026-08-31 07:10 am 6.2 6.2 9.1WNW 1.0 4.0 WNW AVERAGE 7.8
2026-08-31 06:40 am 5.6 5.6 9.1 NW 1.0 3.3 WNW AVERAGE 7.6
2026-08-31 06:10 am 5.9 5.9 16.0SSW 1.0 3.7 WNW SWELL 7.9
2026-08-31 05:40 am 5.6 5.6 9.1 NW 1.0 3.4 WNW AVERAGE 7.8
2026-08-31 05:10 am 5.6 5.6 9.1 NW 1.0 3.1 W AVERAGE 7.7
2026-08-31 04:40 am 5.6 5.6 9.1 NW 1.0 4.0 WNW AVERAGE 7.7
2026-08-31 04:10 am 5.2 5.2 10.0WNW 0.7 4.0 WNW SWELL 7.9
2026-08-31 03:40 am 5.9 5.9 10.0 NW 0.7 3.7 WNW SWELL 8.3
2026-08-31 03:10 am 5.9 5.9 10.0 NW 0.7 3.7 WNW SWELL 8.3

Plot icon Plot of wave energy versus frequency (and period)